createdAt,value
2023-06-19T00:00:36.000Z,3.132
2023-06-19T00:01:36.495Z,1.960
2023-06-19T00:02:36.510Z,1.040
2023-06-19T00:03:36.202Z,1.400
2023-06-19T00:05:36.428Z,2.040
2023-06-19T00:06:35.883Z,2.320
2023-06-19T00:07:36.327Z,2.160
2023-06-19T00:08:35.728Z,0.200
2023-06-19T00:09:36.139Z,0.400
2023-06-19T00:10:36.562Z,1.613
2023-06-19T00:12:36.359Z,4.200
2023-06-19T00:13:35.861Z,2.480
2023-06-19T00:14:36.224Z,2.920
2023-06-19T00:17:36.264Z,1.720
2023-06-19T00:18:35.925Z,3.240
2023-06-19T00:19:36.307Z,4.280
2023-06-19T00:20:35.814Z,2.200
2023-06-19T00:21:36.246Z,2.920
2023-06-19T00:22:35.666Z,3.160
2023-06-19T00:23:36.094Z,3.920
2023-06-19T00:24:37.026Z,4.170
2023-06-19T00:25:35.859Z,2.929
2023-06-19T00:26:36.262Z,3.600
2023-06-19T00:29:36.524Z,5.036
2023-06-19T00:30:35.919Z,3.986
2023-06-19T00:31:36.328Z,2.320
2023-06-19T00:34:36.259Z,4.200
2023-06-19T00:35:35.704Z,4.400
2023-06-19T00:36:36.159Z,4.120
2023-06-19T00:39:36.129Z,3.824
2023-06-19T00:41:36.352Z,3.200
2023-06-19T00:42:35.725Z,2.600
2023-06-19T00:43:36.151Z,4.840
2023-06-19T00:44:36.582Z,2.754
2023-06-19T00:45:36.028Z,2.685
2023-06-19T00:46:36.731Z,3.659
2023-06-19T00:47:36.209Z,3.539
2023-06-19T00:49:36.358Z,2.240
2023-06-19T00:51:36.284Z,2.280
2023-06-19T00:52:35.768Z,3.320
2023-06-19T00:53:36.198Z,1.760
2023-06-19T00:54:36.606Z,2.243
2023-06-19T00:55:36.030Z,4.719
2023-06-19T00:56:36.466Z,4.880
2023-06-19T00:57:35.865Z,4.040
2023-06-19T00:58:36.362Z,4.120
2023-06-19T01:01:35.867Z,4.000
2023-06-19T01:02:36.872Z,3.816
2023-06-19T01:03:36.221Z,3.986
2023-06-19T01:04:36.166Z,3.760
2023-06-19T01:05:35.809Z,4.440
2023-06-19T01:06:36.178Z,3.800
2023-06-19T01:07:36.679Z,3.423
2023-06-19T01:08:36.073Z,4.149
2023-06-19T01:09:36.603Z,2.951
2023-06-19T01:10:35.971Z,3.498
2023-06-19T01:11:36.344Z,4.160
2023-06-19T01:14:35.762Z,3.520
2023-06-19T01:15:36.464Z,3.720
2023-06-19T01:17:35.909Z,2.880
2023-06-19T01:18:36.635Z,2.636
2023-06-19T01:19:36.029Z,4.231
2023-06-19T01:20:36.508Z,3.305
2023-06-19T01:22:36.390Z,3.080
2023-06-19T01:23:35.861Z,3.000
2023-06-19T01:24:36.666Z,4.040
2023-06-19T01:25:36.500Z,3.400
2023-06-19T01:26:36.003Z,2.880
2023-06-19T01:27:36.449Z,2.480
2023-06-19T01:28:35.922Z,3.840
2023-06-19T01:29:36.327Z,3.520
2023-06-19T01:32:35.863Z,4.080
2023-06-19T01:33:36.535Z,3.895
2023-06-19T01:34:36.899Z,3.580
2023-06-19T01:35:36.384Z,3.920
2023-06-19T01:36:35.763Z,5.040
2023-06-19T01:37:36.347Z,3.120
2023-06-19T01:39:36.427Z,3.760
2023-06-19T01:42:35.649Z,3.120
2023-06-19T01:43:36.078Z,3.560
2023-06-19T01:44:36.488Z,4.400
2023-06-19T01:45:35.907Z,3.640
2023-06-19T01:46:36.337Z,3.680
2023-06-19T01:47:36.362Z,3.440
2023-06-19T01:48:36.228Z,4.080
2023-06-19T01:50:36.103Z,3.480
2023-06-19T01:51:36.481Z,3.777
2023-06-19T01:52:35.904Z,2.969
2023-06-19T01:53:36.394Z,4.120
2023-06-19T01:54:35.796Z,3.440
2023-06-19T01:55:36.237Z,4.320
2023-06-19T01:56:35.730Z,4.560
2023-06-19T01:57:36.224Z,3.400
2023-06-19T01:58:36.641Z,2.872
2023-06-19T01:59:36.028Z,3.458
2023-06-19T02:00:36.505Z,1.456
2023-06-19T02:01:35.920Z,3.539
2023-06-19T02:02:36.431Z,3.680
2023-06-19T02:03:36.677Z,3.502
2023-06-19T02:04:36.002Z,4.190
2023-06-19T02:05:36.412Z,3.800
2023-06-19T02:06:35.802Z,4.400
2023-06-19T02:07:36.257Z,3.600
2023-06-19T02:10:36.576Z,3.423
2023-06-19T02:11:35.995Z,3.173
2023-06-19T02:12:36.397Z,3.080
2023-06-19T02:15:35.850Z,3.986
2023-06-19T02:16:36.434Z,3.600
2023-06-19T02:17:36.282Z,3.280
2023-06-19T02:20:35.790Z,3.520
2023-06-19T02:21:36.200Z,5.280
2023-06-19T02:22:35.792Z,4.080
2023-06-19T02:23:36.230Z,4.560
2023-06-19T02:24:35.672Z,4.720
2023-06-19T02:25:36.528Z,3.108
2023-06-19T02:27:36.354Z,3.800
2023-06-19T02:28:35.819Z,3.200
2023-06-19T02:29:36.167Z,3.920
2023-06-19T02:32:36.567Z,3.680
2023-06-19T02:33:36.452Z,3.400
2023-06-19T02:35:36.188Z,3.480
2023-06-19T02:36:35.612Z,3.560
2023-06-19T02:37:36.052Z,3.640
2023-06-19T02:38:36.469Z,4.200
2023-06-19T02:39:35.942Z,4.160
2023-06-19T02:40:36.422Z,4.520
2023-06-19T02:42:36.254Z,4.680
2023-06-19T02:43:35.628Z,4.080
2023-06-19T02:44:36.182Z,4.360
2023-06-19T02:45:36.713Z,4.761
2023-06-19T02:46:36.347Z,4.108
2023-06-19T02:48:36.400Z,5.600
2023-06-19T02:49:35.773Z,4.320
2023-06-19T02:50:36.307Z,5.680
2023-06-19T02:51:35.747Z,4.480
2023-06-19T02:52:36.030Z,3.640
2023-06-19T02:53:36.421Z,3.760
2023-06-19T02:54:35.869Z,5.480
2023-06-19T02:55:36.375Z,4.080
2023-06-19T02:56:35.926Z,4.360
2023-06-19T02:57:36.314Z,3.960
2023-06-19T03:00:35.724Z,3.960
2023-06-19T03:01:36.256Z,4.200
2023-06-19T03:03:36.500Z,5.080
2023-06-19T03:04:35.726Z,4.520
2023-06-19T03:05:36.163Z,4.360
2023-06-19T03:06:36.553Z,3.777
2023-06-19T03:08:36.501Z,4.957
2023-06-19T03:09:35.987Z,4.393
2023-06-19T03:10:36.426Z,4.440
2023-06-19T03:13:35.836Z,5.760
2023-06-19T03:14:36.433Z,4.880
2023-06-19T03:15:35.876Z,5.280
2023-06-19T03:16:36.401Z,5.640
2023-06-19T03:17:36.140Z,5.600
2023-06-19T03:18:35.812Z,5.280
2023-06-19T03:19:36.332Z,4.440
2023-06-19T03:20:35.779Z,3.720
2023-06-19T03:21:36.302Z,3.880
2023-06-19T03:24:35.878Z,3.040
2023-06-19T03:25:35.725Z,4.800
2023-06-19T03:26:36.215Z,4.120
2023-06-19T03:27:36.592Z,3.895
2023-06-19T03:28:35.998Z,4.556
2023-06-19T03:29:36.404Z,2.960
2023-06-19T03:30:35.829Z,3.280
2023-06-19T03:31:36.548Z,4.485
2023-06-19T03:32:36.710Z,3.783
2023-06-19T03:34:36.121Z,3.800
2023-06-19T03:35:36.535Z,2.872
2023-06-19T03:36:35.835Z,2.807
2023-06-19T03:37:36.239Z,1.960
2023-06-19T03:38:35.760Z,2.800
2023-06-19T03:39:36.261Z,2.840
2023-06-19T03:40:36.471Z,2.080
2023-06-19T03:42:36.410Z,1.600
2023-06-19T03:43:35.861Z,1.000
2023-06-19T03:44:36.256Z,2.120
2023-06-19T03:47:36.411Z,3.600
2023-06-19T03:48:36.161Z,3.520
2023-06-19T03:49:36.543Z,1.180
2023-06-19T03:50:36.797Z,1.383
2023-06-19T03:51:35.661Z,2.280
2023-06-19T03:52:36.255Z,0.760
2023-06-19T03:53:35.704Z,2.520
2023-06-19T03:54:36.232Z,2.280
2023-06-19T03:57:36.572Z,2.911
2023-06-19T03:58:36.054Z,3.254
2023-06-19T03:59:36.457Z,4.800
2023-06-19T04:00:36.043Z,2.920
2023-06-19T04:01:36.529Z,3.187
2023-06-19T04:04:35.953Z,3.840
2023-06-19T04:05:36.360Z,3.080
2023-06-19T04:06:35.817Z,4.320
2023-06-19T04:07:36.221Z,4.320
2023-06-19T04:08:36.792Z,5.469
2023-06-19T04:09:36.374Z,3.214
2023-06-19T04:12:35.649Z,1.560
2023-06-19T04:13:36.122Z,3.960
2023-06-19T04:14:36.548Z,2.479
2023-06-19T04:15:36.171Z,2.603
2023-06-19T04:18:36.177Z,2.920
2023-06-19T04:19:36.580Z,2.282
2023-06-19T04:20:35.963Z,4.434
2023-06-19T04:21:36.428Z,4.040
2023-06-19T04:24:35.894Z,4.560
2023-06-19T04:25:36.609Z,3.816
2023-06-19T04:26:36.020Z,3.295
2023-06-19T04:27:36.432Z,3.480
2023-06-19T04:28:35.932Z,4.280
2023-06-19T04:29:36.356Z,3.120
2023-06-19T04:30:35.759Z,4.920
2023-06-19T04:31:36.239Z,3.680
2023-06-19T04:32:36.127Z,2.480
2023-06-19T04:33:36.210Z,4.200
2023-06-19T04:34:36.201Z,3.720
2023-06-19T04:35:35.662Z,5.320
2023-06-19T04:36:36.109Z,4.880
2023-06-19T04:37:36.652Z,5.823
2023-06-19T04:38:36.062Z,4.719
2023-06-19T04:39:36.660Z,4.013
2023-06-19T04:40:36.152Z,3.946
2023-06-19T04:41:36.533Z,3.226
2023-06-19T04:44:35.875Z,3.360
2023-06-19T04:45:36.271Z,4.600
2023-06-19T04:46:35.841Z,5.800
2023-06-19T04:47:52.491Z,3.640
2023-06-19T04:49:36.641Z,3.738
2023-06-19T04:51:36.452Z,4.560
2023-06-19T04:52:36.022Z,3.680
2023-06-19T04:54:36.145Z,3.440
2023-06-19T04:55:36.535Z,1.495
2023-06-19T04:56:35.970Z,1.708
2023-06-19T04:57:36.375Z,2.840
2023-06-19T04:59:36.527Z,3.148
2023-06-19T05:00:35.950Z,4.271
2023-06-19T05:01:36.501Z,3.080
2023-06-19T05:02:36.333Z,3.240
2023-06-19T05:04:36.775Z,2.557
2023-06-19T05:05:35.770Z,2.522
2023-06-19T05:06:36.219Z,1.360
2023-06-19T05:07:35.671Z,2.040
2023-06-19T05:08:36.247Z,4.680
2023-06-19T05:09:36.613Z,3.344
2023-06-19T05:10:36.053Z,5.329
2023-06-19T05:11:36.524Z,5.280
2023-06-19T05:12:35.978Z,4.520
2023-06-19T05:13:36.519Z,4.092
2023-06-19T05:16:40.757Z,3.040
2023-06-19T05:17:36.040Z,2.880
2023-06-19T05:18:36.105Z,0.440
2023-06-19T05:19:36.612Z,1.120
2023-06-19T05:20:35.951Z,0.920
2023-06-19T05:21:36.364Z,0.320
2023-06-19T05:22:35.841Z,1.040
2023-06-19T05:23:36.347Z,0.480
2023-06-19T05:24:35.890Z,2.760
2023-06-19T05:25:35.851Z,2.240
2023-06-19T05:26:36.276Z,1.080
2023-06-19T05:27:35.644Z,1.400
2023-06-19T05:28:36.080Z,2.040
2023-06-19T05:29:36.523Z,1.760
2023-06-19T05:30:35.964Z,0.960
2023-06-19T05:31:36.389Z,3.080
2023-06-19T05:32:35.761Z,4.400
2023-06-19T05:33:36.520Z,4.640
2023-06-19T05:34:36.083Z,2.040
2023-06-19T05:35:36.502Z,1.023
2023-06-19T05:38:36.112Z,1.240
2023-06-19T05:39:36.712Z,3.226
2023-06-19T05:40:36.157Z,1.261
2023-06-19T05:41:36.646Z,1.298
2023-06-19T05:43:35.952Z,2.278
2023-06-19T05:44:36.364Z,2.320
2023-06-19T05:45:35.746Z,2.960
2023-06-19T05:46:36.592Z,4.210
2023-06-19T05:47:36.146Z,3.946
2023-06-19T05:49:36.358Z,3.600
2023-06-19T05:51:36.242Z,5.040
2023-06-19T05:52:36.272Z,6.920
2023-06-19T05:53:35.623Z,4.600
2023-06-19T05:54:36.056Z,5.000
2023-06-19T05:55:35.726Z,5.240
2023-06-19T05:56:36.189Z,3.960
2023-06-19T05:57:36.592Z,3.659
2023-06-19T05:58:36.060Z,3.132
2023-06-19T05:59:36.560Z,3.738
2023-06-19T06:00:35.966Z,3.295
2023-06-19T06:01:36.482Z,4.560
2023-06-19T06:03:35.913Z,2.960
2023-06-19T06:04:36.597Z,2.800
2023-06-19T06:05:36.302Z,5.160
2023-06-19T06:07:41.426Z,8.200
2023-06-19T06:09:36.011Z,3.400
2023-06-19T06:10:36.445Z,5.400
2023-06-19T06:11:35.976Z,3.520
2023-06-19T06:13:35.763Z,4.760
2023-06-19T06:14:36.251Z,2.840
2023-06-19T06:15:35.664Z,2.240
2023-06-19T06:16:36.209Z,2.040
2023-06-19T06:18:36.499Z,3.120
2023-06-19T06:19:36.021Z,2.040
2023-06-19T06:20:36.404Z,2.440
2023-06-19T06:22:36.234Z,2.440
2023-06-19T06:23:35.747Z,4.120
2023-06-19T06:24:36.480Z,8.000
2023-06-19T06:27:35.636Z,3.880
2023-06-19T06:28:36.191Z,6.960
2023-06-19T06:29:35.705Z,8.160
2023-06-19T06:30:36.175Z,8.880
2023-06-19T06:33:35.865Z,5.920
2023-06-19T06:34:36.288Z,5.720
2023-06-19T06:36:49.478Z,5.160
2023-06-19T06:37:36.477Z,2.520
2023-06-19T06:38:35.823Z,4.480
2023-06-19T06:39:36.267Z,7.480
2023-06-19T06:40:35.693Z,7.680
2023-06-19T06:41:36.300Z,6.520
2023-06-19T06:42:35.847Z,6.680
2023-06-19T06:43:36.319Z,7.160
2023-06-19T06:44:35.802Z,7.920
2023-06-19T06:45:36.181Z,8.200
2023-06-19T06:48:36.199Z,8.400
2023-06-19T06:49:36.646Z,8.144
2023-06-19T06:50:36.063Z,4.963
2023-06-19T06:53:36.682Z,9.049
2023-06-19T06:54:36.104Z,9.315
2023-06-19T06:55:36.543Z,11.095
2023-06-19T06:57:35.827Z,7.360
2023-06-19T06:58:36.295Z,8.840
2023-06-19T06:59:35.676Z,9.680
2023-06-19T07:00:36.146Z,9.200
2023-06-19T07:01:35.975Z,4.520
2023-06-19T07:02:36.805Z,6.964
2023-06-19T07:04:35.823Z,8.480
2023-06-19T07:05:36.299Z,7.040
2023-06-19T07:06:35.771Z,6.440
2023-06-19T07:07:36.201Z,5.520
2023-06-19T07:08:36.628Z,8.695
2023-06-19T07:09:36.082Z,8.868
2023-06-19T07:10:36.636Z,4.603
2023-06-19T07:11:36.285Z,3.905
2023-06-19T07:13:35.888Z,5.320
2023-06-19T07:14:36.349Z,5.240
2023-06-19T07:15:35.825Z,5.600
2023-06-19T07:16:36.383Z,6.560
2023-06-19T07:17:36.439Z,7.120
2023-06-19T07:18:36.190Z,5.360
2023-06-19T07:20:36.117Z,9.640
2023-06-19T07:21:36.564Z,8.498
2023-06-19T07:22:35.975Z,10.332
2023-06-19T07:23:38.003Z,5.840
2023-06-19T07:24:35.643Z,5.200
2023-06-19T07:25:35.943Z,8.640
2023-06-19T07:26:36.385Z,8.560
2023-06-19T07:27:36.042Z,9.880
2023-06-19T07:28:36.470Z,8.360
2023-06-19T07:30:37.323Z,4.640
2023-06-19T07:31:37.424Z,7.880
2023-06-19T07:32:37.303Z,6.000
2023-06-19T07:33:37.304Z,7.520
2023-06-19T07:34:35.756Z,4.040
2023-06-19T07:35:36.207Z,4.360
2023-06-19T07:36:35.718Z,6.240
2023-06-19T07:37:36.333Z,3.960
2023-06-19T07:39:36.337Z,4.040
2023-06-19T07:40:35.822Z,3.560
2023-06-19T07:41:36.462Z,6.000
2023-06-19T07:42:35.865Z,4.560
2023-06-19T07:44:36.337Z,4.000
2023-06-19T07:45:35.978Z,7.040
2023-06-19T07:48:36.494Z,7.078
2023-06-19T07:49:35.996Z,3.480
2023-06-19T07:50:36.953Z,7.000
2023-06-19T07:52:35.854Z,4.600
2023-06-19T07:53:36.315Z,4.680
2023-06-19T07:54:35.777Z,10.000
2023-06-19T07:55:36.255Z,7.120
2023-06-19T07:56:35.792Z,8.160
2023-06-19T07:57:36.297Z,10.560
2023-06-19T08:00:35.664Z,5.000
2023-06-19T08:01:36.305Z,8.520
2023-06-19T08:04:35.728Z,5.200
2023-06-19T08:05:36.544Z,5.626
2023-06-19T08:06:35.915Z,4.149
2023-06-19T08:07:36.392Z,9.440
2023-06-19T08:10:37.140Z,6.964
2023-06-19T08:11:36.527Z,10.160
2023-06-19T08:13:36.470Z,10.920
2023-06-19T08:14:35.962Z,9.160
2023-06-19T08:15:36.473Z,8.880
2023-06-19T08:16:35.973Z,7.680
2023-06-19T08:18:36.504Z,5.744
2023-06-19T08:19:35.917Z,6.346
2023-06-19T08:20:36.398Z,8.640
2023-06-19T08:21:35.880Z,8.800
2023-06-19T08:22:36.315Z,9.080
2023-06-19T08:23:35.876Z,8.680
2023-06-19T08:24:36.574Z,9.240
2023-06-19T08:27:36.341Z,5.120
2023-06-19T08:28:35.866Z,5.600
2023-06-19T08:29:35.750Z,6.200
2023-06-19T08:30:36.229Z,7.640
2023-06-19T08:31:35.749Z,6.880
2023-06-19T08:32:36.265Z,7.760
2023-06-19T08:35:36.052Z,6.305
2023-06-19T08:36:36.482Z,15.160
2023-06-19T08:37:35.888Z,9.360
2023-06-19T08:38:36.381Z,9.440
2023-06-19T08:39:35.806Z,10.080
2023-06-19T08:40:36.292Z,5.320
2023-06-19T08:41:35.774Z,11.840
2023-06-19T08:42:36.228Z,11.360
2023-06-19T08:45:36.524Z,8.223
2023-06-19T08:46:36.399Z,6.712
2023-06-19T08:47:36.439Z,8.560
2023-06-19T08:48:36.444Z,5.840
2023-06-19T08:49:35.810Z,8.040
2023-06-19T08:50:36.287Z,8.400
2023-06-19T08:51:35.677Z,5.960
2023-06-19T08:52:36.072Z,10.440
2023-06-19T08:53:36.518Z,8.774
2023-06-19T08:55:36.533Z,6.440
2023-06-19T08:56:35.975Z,8.720
2023-06-19T08:58:36.272Z,6.640
2023-06-19T08:59:35.695Z,6.280
2023-06-19T09:00:36.973Z,3.840
2023-06-19T09:02:36.058Z,6.800
2023-06-19T09:03:36.326Z,8.240
2023-06-19T09:04:36.639Z,8.105
2023-06-19T09:05:36.187Z,7.688
2023-06-19T09:06:36.430Z,9.640
2023-06-19T09:07:36.571Z,9.320
2023-06-19T09:08:36.218Z,5.880
2023-06-19T09:09:36.630Z,4.879
2023-06-19T09:10:36.179Z,8.786
2023-06-19T09:11:35.729Z,7.680
2023-06-19T09:12:36.162Z,5.800
2023-06-19T09:13:36.518Z,5.626
2023-06-19T09:14:36.101Z,4.678
2023-06-19T09:15:36.605Z,5.626
2023-06-19T09:18:36.180Z,5.492
2023-06-19T09:19:36.633Z,5.430
2023-06-19T09:20:36.356Z,4.149
2023-06-19T09:23:36.638Z,5.430
2023-06-19T09:24:36.359Z,3.905
2023-06-19T09:25:36.509Z,7.160
2023-06-19T09:26:35.982Z,6.240
2023-06-19T09:27:36.444Z,6.040
2023-06-19T09:29:36.393Z,6.440
2023-06-19T09:30:35.886Z,5.480
2023-06-19T09:31:36.335Z,5.000
2023-06-19T09:34:37.847Z,7.600
2023-06-19T09:35:35.779Z,7.322
2023-06-19T09:36:36.471Z,8.200
2023-06-19T09:39:35.774Z,7.403
2023-06-19T09:40:36.436Z,9.520
2023-06-19T09:41:36.140Z,9.520
2023-06-19T09:42:35.788Z,9.520
2023-06-19T09:43:36.485Z,10.360
2023-06-19T09:44:44.576Z,6.240
2023-06-19T09:46:36.576Z,7.480
2023-06-19T09:47:36.458Z,8.360
2023-06-19T09:48:36.588Z,7.760
2023-06-19T09:49:36.033Z,8.440
2023-06-19T09:50:36.445Z,8.760
2023-06-19T09:51:35.804Z,9.400
2023-06-19T09:52:36.232Z,6.560
2023-06-19T09:53:35.685Z,3.040
2023-06-19T09:54:36.075Z,1.680
2023-06-19T09:55:35.957Z,2.000
2023-06-19T09:56:36.382Z,3.320
2023-06-19T09:58:36.356Z,4.440
2023-06-19T09:59:35.816Z,5.520
2023-06-19T10:00:36.290Z,4.360
2023-06-19T10:02:35.802Z,3.240
2023-06-19T10:03:36.099Z,7.120
2023-06-19T10:05:36.434Z,3.920
2023-06-19T10:06:35.860Z,2.840
2023-06-19T10:07:36.621Z,2.007
2023-06-19T10:08:36.131Z,4.068
2023-06-19T10:09:36.606Z,2.754
2023-06-19T10:12:35.917Z,4.880
2023-06-19T10:13:36.430Z,4.680
2023-06-19T10:14:35.908Z,3.440
2023-06-19T10:15:36.360Z,2.880
2023-06-19T10:16:35.786Z,4.200
2023-06-19T10:17:36.566Z,7.760
2023-06-19T10:18:36.222Z,7.480
2023-06-19T10:20:36.213Z,4.120
2023-06-19T10:21:35.852Z,5.080
2023-06-19T10:22:36.348Z,6.760
2023-06-19T10:23:35.895Z,4.080
2023-06-19T10:25:36.055Z,2.800
2023-06-19T10:26:36.592Z,2.361
2023-06-19T10:27:36.090Z,3.986
2023-06-19T10:28:36.158Z,3.520
2023-06-19T10:29:37.002Z,3.305
2023-06-19T10:30:36.723Z,1.920
2023-06-19T10:31:36.272Z,2.969
2023-06-19T10:33:36.495Z,4.200
2023-06-19T10:34:36.178Z,2.120
2023-06-19T10:35:36.240Z,6.360
2023-06-19T10:37:36.297Z,3.840
2023-06-19T10:38:35.739Z,0.880
2023-06-19T10:39:36.201Z,1.760
2023-06-19T10:40:35.628Z,2.480
2023-06-19T10:41:36.056Z,3.240
2023-06-19T10:42:36.495Z,6.920
2023-06-19T10:45:36.222Z,1.880
2023-06-19T10:46:36.595Z,1.560
2023-06-19T10:48:36.261Z,6.520
2023-06-19T10:49:35.755Z,11.000
2023-06-19T10:50:36.236Z,6.600
2023-06-19T10:51:35.777Z,1.880
2023-06-19T10:52:36.260Z,0.720
2023-06-19T10:53:35.676Z,3.240
2023-06-19T10:54:36.181Z,7.880
2023-06-19T10:55:39.345Z,10.920
2023-06-19T10:57:36.304Z,11.160
2023-06-19T10:58:35.807Z,8.840
2023-06-19T10:59:36.238Z,5.640
2023-06-19T11:01:36.183Z,5.160
2023-06-19T11:02:35.672Z,4.520
2023-06-19T11:03:35.994Z,8.800
2023-06-19T11:04:36.019Z,8.160
2023-06-19T11:05:36.493Z,8.400
2023-06-19T11:06:37.370Z,5.400
2023-06-19T11:09:35.694Z,5.920
2023-06-19T11:10:35.978Z,7.080
2023-06-19T11:11:36.424Z,5.440
2023-06-19T11:12:35.855Z,4.240
2023-06-19T11:13:36.468Z,5.600
2023-06-19T11:16:36.206Z,4.720
2023-06-19T11:17:36.296Z,1.760
2023-06-19T11:18:36.008Z,1.720
2023-06-19T11:19:36.479Z,4.240
2023-06-19T11:20:35.904Z,3.360
2023-06-19T11:21:36.357Z,5.000
2023-06-19T11:22:35.877Z,3.520
2023-06-19T11:23:36.253Z,5.480
2023-06-19T11:26:36.168Z,3.400
2023-06-19T11:27:36.641Z,7.003
2023-06-19T11:28:37.440Z,5.695
2023-06-19T11:31:35.657Z,7.160
2023-06-19T11:32:36.255Z,9.080
2023-06-19T11:33:36.354Z,6.600
2023-06-19T11:34:35.827Z,3.600
2023-06-19T11:35:36.485Z,7.600
2023-06-19T11:36:36.047Z,11.880
2023-06-19T11:39:35.869Z,11.240
2023-06-19T11:40:36.335Z,11.760
2023-06-19T11:41:35.967Z,7.520
2023-06-19T11:42:36.372Z,5.680
2023-06-19T11:43:35.812Z,9.600
2023-06-19T11:44:37.310Z,11.720
2023-06-19T11:45:36.655Z,6.320
2023-06-19T11:46:36.783Z,6.689
2023-06-19T11:47:36.288Z,10.169
2023-06-19T11:48:36.080Z,8.440
2023-06-19T11:49:36.387Z,9.080
2023-06-19T11:52:35.986Z,4.881
2023-06-19T11:53:36.474Z,5.840
2023-06-19T11:54:36.045Z,5.840
2023-06-19T11:55:38.782Z,7.869
2023-06-19T11:56:36.361Z,8.990
2023-06-19T11:58:36.132Z,4.520
2023-06-19T11:59:36.596Z,5.705
2023-06-19T12:00:36.070Z,7.403
2023-06-19T12:01:36.623Z,5.744
2023-06-19T12:02:36.351Z,6.427
2023-06-19T12:03:38.825Z,5.280
2023-06-19T12:04:36.675Z,5.880
2023-06-19T12:05:35.899Z,5.480
2023-06-19T12:06:36.637Z,8.400
2023-06-19T12:07:36.049Z,8.280
2023-06-19T12:08:36.561Z,8.184
2023-06-19T12:09:35.961Z,4.922
2023-06-19T12:10:36.327Z,5.360
2023-06-19T12:13:36.627Z,6.098
2023-06-19T12:14:36.078Z,6.997
2023-06-19T12:15:38.051Z,4.367
2023-06-19T12:18:36.337Z,3.864
2023-06-19T12:20:36.293Z,4.720
2023-06-19T12:21:42.985Z,4.880
2023-06-19T12:22:35.650Z,5.760
2023-06-19T12:23:36.023Z,8.120
2023-06-19T12:24:36.666Z,8.040
2023-06-19T12:25:36.391Z,4.360
2023-06-19T12:26:35.891Z,4.440
2023-06-19T12:27:35.759Z,7.760
2023-06-19T12:28:36.205Z,6.120
2023-06-19T12:29:35.737Z,2.600
2023-06-19T12:30:36.146Z,5.280
2023-06-19T12:32:36.403Z,5.320
2023-06-19T12:33:36.193Z,1.960
2023-06-19T12:36:35.915Z,4.480
2023-06-19T12:37:36.364Z,4.680
2023-06-19T12:38:35.821Z,8.160
2023-06-19T12:39:36.381Z,6.000
2023-06-19T12:40:35.832Z,7.000
2023-06-19T12:41:36.597Z,4.367
2023-06-19T12:42:36.220Z,2.522
2023-06-19T12:45:35.743Z,5.720
2023-06-19T12:46:36.668Z,6.960
2023-06-19T12:47:36.288Z,3.600
2023-06-19T12:50:35.876Z,1.120
2023-06-19T12:51:36.276Z,3.280
2023-06-19T12:52:35.955Z,6.080
2023-06-19T12:53:36.362Z,7.480
2023-06-19T12:57:35.642Z,5.360
2023-06-19T12:58:36.149Z,6.200
2023-06-19T12:59:36.575Z,8.459
2023-06-19T13:00:35.963Z,7.729
2023-06-19T13:01:36.417Z,7.520
2023-06-19T13:02:36.516Z,4.680
2023-06-19T13:03:36.792Z,3.266
2023-06-19T13:04:35.937Z,1.912
2023-06-19T13:05:36.535Z,2.675
2023-06-19T13:06:36.014Z,4.759
2023-06-19T13:07:36.485Z,5.600
2023-06-19T13:08:35.851Z,4.200
2023-06-19T13:09:36.556Z,2.754
2023-06-19T13:10:37.073Z,4.759
2023-06-19T13:12:36.486Z,6.102
2023-06-19T13:13:35.901Z,3.680
2023-06-19T13:14:36.393Z,5.040
2023-06-19T13:15:36.002Z,3.520
2023-06-19T13:16:46.052Z,5.920
2023-06-19T13:17:36.183Z,9.360
2023-06-19T13:18:36.630Z,6.964
2023-06-19T13:19:36.130Z,6.753
2023-06-19T13:20:36.566Z,4.957
2023-06-19T13:21:36.008Z,8.868
2023-06-19T13:23:36.449Z,7.280
2023-06-19T13:24:35.932Z,7.760
2023-06-19T13:25:36.135Z,8.000
2023-06-19T13:26:35.696Z,5.640
2023-06-19T13:27:36.405Z,7.800
2023-06-19T13:28:35.829Z,10.120
2023-06-19T13:29:36.370Z,11.680
2023-06-19T13:32:36.102Z,7.560
2023-06-19T13:33:35.876Z,12.640
2023-06-19T13:34:36.437Z,11.800
2023-06-19T13:35:35.956Z,9.240
2023-06-19T13:36:36.536Z,5.115
2023-06-19T13:38:36.562Z,5.941
2023-06-19T13:39:36.020Z,4.434
2023-06-19T13:40:35.672Z,4.240
2023-06-19T13:41:36.371Z,4.240
2023-06-19T13:42:35.766Z,5.080
2023-06-19T13:43:36.254Z,5.880
2023-06-19T13:44:35.808Z,6.200
2023-06-19T13:45:35.957Z,5.240
2023-06-19T13:46:36.391Z,6.400
2023-06-19T13:47:36.352Z,5.680
2023-06-19T13:49:36.274Z,7.040
2023-06-19T13:52:35.876Z,8.640
2023-06-19T13:53:36.281Z,5.960
2023-06-19T13:54:35.626Z,5.560
2023-06-19T13:55:36.221Z,7.840
2023-06-19T13:56:35.835Z,6.000
2023-06-19T13:57:36.333Z,4.440
2023-06-19T13:58:35.977Z,5.240
2023-06-19T13:59:36.532Z,4.603
2023-06-19T14:00:36.119Z,5.817
2023-06-19T14:02:36.549Z,5.560
2023-06-19T14:03:35.936Z,7.720
2023-06-19T14:05:38.663Z,4.800
2023-06-19T14:06:36.016Z,1.480
2023-06-19T14:07:36.473Z,2.080
2023-06-19T14:08:36.066Z,2.080
2023-06-19T14:09:36.477Z,6.520
2023-06-19T14:10:36.107Z,6.760
2023-06-19T14:11:36.523Z,5.351
2023-06-19T14:14:36.387Z,5.614
2023-06-19T14:15:36.039Z,6.400
2023-06-19T14:16:36.653Z,5.160
2023-06-19T14:17:35.837Z,1.760
2023-06-19T14:18:36.454Z,4.600
2023-06-19T14:20:36.465Z,5.000
2023-06-19T14:21:35.993Z,6.960
2023-06-19T14:22:36.426Z,6.800
2023-06-19T14:25:38.092Z,9.120
2023-06-19T14:28:35.775Z,8.280
2023-06-19T14:29:36.252Z,8.240
2023-06-19T14:30:35.691Z,9.800
2023-06-19T14:31:36.062Z,10.680
2023-06-19T14:32:36.642Z,8.341
2023-06-19T14:34:36.558Z,4.963
2023-06-19T14:35:36.011Z,4.760
2023-06-19T14:36:36.053Z,4.720
2023-06-19T14:37:36.671Z,8.420
2023-06-19T14:39:36.102Z,7.200
2023-06-19T14:40:36.724Z,8.066
2023-06-19T14:41:36.192Z,12.122
2023-06-19T14:42:36.652Z,10.308
2023-06-19T14:43:38.002Z,7.729
2023-06-19T14:45:35.963Z,10.007
2023-06-19T14:46:39.853Z,9.400
2023-06-19T14:47:35.859Z,6.840
2023-06-19T14:48:36.396Z,7.800
2023-06-19T14:49:35.927Z,5.560
2023-06-19T14:50:36.314Z,5.560
2023-06-19T14:51:35.748Z,4.960
2023-06-19T14:52:36.182Z,6.920
2023-06-19T14:53:36.731Z,6.492
2023-06-19T14:54:36.144Z,6.834
2023-06-19T14:55:36.618Z,5.705
2023-06-19T14:57:36.601Z,5.587
2023-06-19T14:58:36.068Z,4.800
2023-06-19T14:59:36.503Z,4.200
2023-06-19T15:00:35.920Z,6.360
2023-06-19T15:01:36.484Z,4.360
2023-06-19T15:02:38.398Z,3.960
2023-06-19T15:04:36.159Z,5.680
2023-06-19T15:05:36.237Z,4.800
2023-06-19T15:06:35.830Z,6.760
2023-06-19T15:07:36.365Z,8.240
2023-06-19T15:09:36.304Z,4.520
2023-06-19T15:10:35.716Z,3.040
2023-06-19T15:11:36.250Z,4.720
2023-06-19T15:14:35.666Z,5.000
2023-06-19T15:15:36.548Z,5.400
2023-06-19T15:16:38.149Z,4.680
2023-06-19T15:17:35.813Z,6.640
2023-06-19T15:18:36.067Z,5.000
2023-06-19T15:21:36.104Z,7.640
2023-06-19T15:22:36.495Z,6.840
2023-06-19T15:23:35.902Z,5.280
2023-06-19T15:24:36.470Z,8.120
2023-06-19T15:25:36.389Z,5.000
2023-06-19T15:26:37.633Z,4.360
2023-06-19T15:27:36.539Z,5.193
2023-06-19T15:28:35.992Z,4.027
2023-06-19T15:29:36.414Z,5.880
2023-06-19T15:30:35.929Z,4.360
2023-06-19T15:31:36.333Z,5.280
2023-06-19T15:32:35.765Z,4.160
2023-06-19T15:33:36.557Z,7.121
2023-06-19T15:36:36.480Z,10.960
2023-06-19T15:37:35.952Z,7.840
2023-06-19T15:38:36.444Z,13.600
2023-06-19T15:39:35.971Z,10.160
2023-06-19T15:41:36.537Z,14.880
2023-06-19T15:42:35.910Z,10.280
2023-06-19T15:45:36.002Z,11.040
2023-06-19T15:46:36.914Z,17.351
2023-06-19T15:49:35.871Z,16.160
2023-06-19T15:50:36.408Z,17.560
2023-06-19T15:51:35.886Z,17.600
2023-06-19T15:52:36.330Z,16.240
2023-06-19T15:53:35.994Z,11.720
2023-06-19T15:54:36.515Z,13.320
2023-06-19T15:55:35.910Z,14.960
2023-06-19T15:56:36.439Z,11.480
2023-06-19T15:58:36.387Z,10.720
2023-06-19T15:59:35.824Z,9.880
2023-06-19T16:00:36.243Z,7.440
2023-06-19T16:02:35.823Z,7.560
2023-06-19T16:03:36.042Z,10.240
2023-06-19T16:06:35.671Z,7.280
2023-06-19T16:07:36.111Z,9.520
2023-06-19T16:08:36.521Z,9.040
2023-06-19T16:09:42.952Z,10.120
2023-06-19T16:10:36.196Z,8.960
2023-06-19T16:11:36.546Z,8.144
2023-06-19T16:12:36.006Z,6.793
2023-06-19T16:13:36.610Z,7.869
2023-06-19T16:14:36.117Z,8.542
2023-06-19T16:15:36.556Z,12.905
2023-06-19T16:18:36.281Z,5.760